CMA-CGM Fort Saint Pierre — FQFM — position and weather

sailwx.info

Track history (hours):
 
Tides and Currents Weather Stations Pressure Air Temp Water Temp Dewpoint Dewpoint Depression Visibility Wind Speed Wind Dir Waves Ship Positions

CMA-CGM Fort Saint Pierre

Last reported at 2015-Aug-01 06:08 UTC. Time now 2015-Aug-01 07:50 UTC.
Position N 50°03' W 002°32'.

Length 197 m; beam 30 m.

Type: Ship (hazmat cat A). MMSI: 226328000.

Date/timePositionNaut miles runAvg speedWind from/ knotsBaromVisibWave heightAir tempDewpointWater temp
2015-Aug-01 06:08N 50°03' W 002°32'1918.2
2015-Aug-01 05:08N 50°05' W 002°04'1017.5
2015-Aug-01 04:33N 50°02' W 001°49'2720.9
2015-Aug-01 03:15N 49°51' W 001°10'1522.0
2015-Aug-01 02:33N 49°44' W 000°49'2121.0
2015-Aug-01 01:33N 49°35' W 000°20'1716.8
2015-Aug-01 00:33N 49°29' E 000°05'4 4.1
2015-Jul-31 23:33N 49°27' E 000°10'0 0.0
2015-Jul-31 22:33N 49°27' E 000°10'0 0.0
2015-Jul-31 21:33N 49°27' E 000°10'0 0.0
2015-Jul-31 20:33N 49°27' E 000°10'0 0.0
2015-Jul-31 19:33N 49°27' E 000°10'0 0.0
2015-Jul-31 18:33N 49°27' E 000°10'0 0.0
2015-Jul-31 17:33N 49°27' E 000°10'0 0.0
2015-Jul-31 16:33N 49°27' E 000°10'0 0.0
2015-Jul-31 15:33N 49°27' E 000°10'0 0.0
2015-Jul-31 14:33N 49°27' E 000°10'0 0.0
2015-Jul-31 13:33N 49°27' E 000°10'0 0.0
2015-Jul-31 12:33N 49°27' E 000°10'0 0.0
2015-Jul-31 11:33N 49°27' E 000°10'0 0.0
2015-Jul-31 10:33N 49°27' E 000°10'0 0.0
2015-Jul-31 09:33N 49°27' E 000°10'0 0.0
2015-Jul-31 08:33N 49°27' E 000°10'0 0.0
2015-Jul-31 07:33N 49°27' E 000°10'0 0.0
2015-Jul-31 06:33N 49°27' E 000°10'0 0.0
2015-Jul-31 05:33N 49°27' E 000°10'0 0.0
2015-Jul-31 04:33N 49°27' E 000°10'0 0.0
2015-Jul-31 03:33N 49°27' E 000°10'0 0.0
2015-Jul-31 02:33N 49°27' E 000°10'0 0.0
2015-Jul-31 01:33N 49°27' E 000°10'0 0.0
2015-Jul-31 00:33N 49°27' E 000°10'0 0.0
2015-Jul-30 23:33N 49°27' E 000°10'1 0.8
2015-Jul-30 22:33N 49°27' E 000°09'3 3.5
2015-Jul-30 21:33N 49°27' E 000°04'1313.3
2015-Jul-30 20:34N 49°27' E 000°24'7 6.9
2015-Jul-30 19:33N 49°26' E 000°35'9 7.8
2015-Jul-30 18:27N 49°31' E 000°46'8 8.7
2015-Jul-30 17:33N 49°24' E 000°52'6 0.3
2015-Jul-29 22:33N 49°29' E 000°47'8 8.0
2015-Jul-29 21:33N 49°26' E 000°35'1010.2
2015-Jul-29 20:33N 49°26' E 000°20'1413.8
2015-Jul-29 19:34N 49°28' W 000°01'3 2.7
2015-Jul-29 18:32N 49°30' W 000°04'0 0.0
2015-Jul-29 17:32N 49°30' W 000°04'0 0.0
2015-Jul-29 16:32N 49°30' W 000°04'0 0.0
2015-Jul-29 15:32N 49°30' W 000°04'0 0.0
2015-Jul-29 14:32N 49°30' W 000°04'0 0.0
2015-Jul-29 13:32N 49°30' W 000°05'0 0.0
2015-Jul-29 12:32N 49°30' W 000°05'0 0.0
2015-Jul-29 11:32N 49°30' W 000°04'0 0.0
2015-Jul-29 10:32N 49°30' W 000°04'0 0.0
2015-Jul-29 09:32N 49°30' W 000°04'0 0.0
2015-Jul-29 08:32N 49°30' W 000°04'3 3.1
2015-Jul-29 07:33N 49°30' W 000°09'1010.0
2015-Jul-29 06:33N 49°40' W 000°11'1110.6
2015-Jul-29 05:32N 49°51' W 000°11'39 9.7
2015-Jul-29 01:33N 50°28' E 000°04'1111.1
2015-Jul-29 00:33N 50°31' E 000°21'1111.2
2015-Jul-28 23:33N 50°36' E 000°37'1111.3
2015-Jul-28 22:33N 50°43' E 000°51'1111.4
2015-Jul-28 21:33N 50°50' E 001°06'1111.5
2015-Jul-28 20:33N 50°58' E 001°18'1111.2
2015-Jul-28 19:34N 51°05' E 001°32'1211.8
2015-Jul-28 18:34N 51°02' E 001°50'1212.1
2015-Jul-28 17:33N 51°03' E 002°10'2 2.1
2015-Jul-28 16:33N 51°01' E 002°11'0 0.0
2015-Jul-28 15:33N 51°01' E 002°11'0 0.0
2015-Jul-28 13:30N 51°01' E 002°11'0 0.0
2015-Jul-28 09:24N 51°01' E 002°11'0 0.0
2015-Jul-28 07:24N 51°01' E 002°11'0 0.0
2015-Jul-27 23:21N 51°01' E 002°11'0 0.0
2015-Jul-27 19:33N 51°01' E 002°11'0 0.0
2015-Jul-27 18:24N 51°01' E 002°11'0 0.0
2015-Jul-27 17:33N 51°01' E 002°11'0 0.0
2015-Jul-27 16:30N 51°01' E 002°11'0 0.0
2015-Jul-27 15:30N 51°01' E 002°11'0 0.0
2015-Jul-27 14:33N 51°01' E 002°11'0 0.0
2015-Jul-27 13:33N 51°01' E 002°11'0 0.0
2015-Jul-27 12:15N 51°01' E 002°11'0 0.0
2015-Jul-27 11:27N 51°01' E 002°11'0 0.0
2015-Jul-27 09:33N 51°01' E 002°11'0 0.0
2015-Jul-27 06:33N 51°01' E 002°11'0 0.0
2015-Jul-27 05:33N 51°01' E 002°11'0 0.0
2015-Jul-27 04:15N 51°01' E 002°11'0 0.0
2015-Jul-27 03:33N 51°01' E 002°11'0 0.0
2015-Jul-27 02:27N 51°01' E 002°11'0 0.0
2015-Jul-27 01:33N 51°01' E 002°11'0 0.0
2015-Jul-27 00:24N 51°01' E 002°11'0 0.0
2015-Jul-26 23:33N 51°01' E 002°11'0 0.0
2015-Jul-26 22:18N 51°01' E 002°11'0 0.0
2015-Jul-26 21:12N 51°01' E 002°11'0 0.0
2015-Jul-26 19:30N 51°01' E 002°11'1 1.6
2015-Jul-26 18:33N 51°02' E 002°10'1515.3
2015-Jul-26 17:33N 51°02' E 001°46'  
2015-Jul-23 12:28N 40°11' W 031°44'1819.3
2015-Jul-23 11:34N 40°01' W 032°02'  
Track history (hours):
 
Tides and Currents Weather Stations Pressure Air Temp Water Temp Dewpoint Dewpoint Depression Visibility Wind Speed Wind Dir Waves Ship Positions

CMA-CGM Fort Saint Pierre

Last reported at 2015-Aug-01 06:08 UTC. Time now 2015-Aug-01 07:50 UTC.
Position N 50°03' W 002°32'.

Length 197 m; beam 30 m.

Type: Ship (hazmat cat A). MMSI: 226328000.

Date/timePositionNaut miles runAvg speedWind from/ knotsBaromVisibWave heightAir tempDewpointWater temp
2015-Aug-01 06:08N 50°03' W 002°32'1918.2
2015-Aug-01 05:08N 50°05' W 002°04'1017.5
2015-Aug-01 04:33N 50°02' W 001°49'2720.9
2015-Aug-01 03:15N 49°51' W 001°10'1522.0
2015-Aug-01 02:33N 49°44' W 000°49'2121.0
2015-Aug-01 01:33N 49°35' W 000°20'1716.8
2015-Aug-01 00:33N 49°29' E 000°05'4 4.1
2015-Jul-31 23:33N 49°27' E 000°10'0 0.0
2015-Jul-31 22:33N 49°27' E 000°10'0 0.0
2015-Jul-31 21:33N 49°27' E 000°10'0 0.0
2015-Jul-31 20:33N 49°27' E 000°10'0 0.0
2015-Jul-31 19:33N 49°27' E 000°10'0 0.0
2015-Jul-31 18:33N 49°27' E 000°10'0 0.0
2015-Jul-31 17:33N 49°27' E 000°10'0 0.0
2015-Jul-31 16:33N 49°27' E 000°10'0 0.0
2015-Jul-31 15:33N 49°27' E 000°10'0 0.0
2015-Jul-31 14:33N 49°27' E 000°10'0 0.0
2015-Jul-31 13:33N 49°27' E 000°10'0 0.0
2015-Jul-31 12:33N 49°27' E 000°10'0 0.0
2015-Jul-31 11:33N 49°27' E 000°10'0 0.0
2015-Jul-31 10:33N 49°27' E 000°10'0 0.0
2015-Jul-31 09:33N 49°27' E 000°10'0 0.0
2015-Jul-31 08:33N 49°27' E 000°10'0 0.0
2015-Jul-31 07:33N 49°27' E 000°10'0 0.0
2015-Jul-31 06:33N 49°27' E 000°10'0 0.0
2015-Jul-31 05:33N 49°27' E 000°10'0 0.0
2015-Jul-31 04:33N 49°27' E 000°10'0 0.0
2015-Jul-31 03:33N 49°27' E 000°10'0 0.0
2015-Jul-31 02:33N 49°27' E 000°10'0 0.0
2015-Jul-31 01:33N 49°27' E 000°10'0 0.0
2015-Jul-31 00:33N 49°27' E 000°10'0 0.0
2015-Jul-30 23:33N 49°27' E 000°10'1 0.8
2015-Jul-30 22:33N 49°27' E 000°09'3 3.5
2015-Jul-30 21:33N 49°27' E 000°04'1313.3
2015-Jul-30 20:34N 49°27' E 000°24'7 6.9
2015-Jul-30 19:33N 49°26' E 000°35'9 7.8
2015-Jul-30 18:27N 49°31' E 000°46'8 8.7
2015-Jul-30 17:33N 49°24' E 000°52'6 0.3
2015-Jul-29 22:33N 49°29' E 000°47'8 8.0
2015-Jul-29 21:33N 49°26' E 000°35'1010.2
2015-Jul-29 20:33N 49°26' E 000°20'1413.8
2015-Jul-29 19:34N 49°28' W 000°01'3 2.7
2015-Jul-29 18:32N 49°30' W 000°04'0 0.0
2015-Jul-29 17:32N 49°30' W 000°04'0 0.0
2015-Jul-29 16:32N 49°30' W 000°04'0 0.0
2015-Jul-29 15:32N 49°30' W 000°04'0 0.0
2015-Jul-29 14:32N 49°30' W 000°04'0 0.0
2015-Jul-29 13:32N 49°30' W 000°05'0 0.0
2015-Jul-29 12:32N 49°30' W 000°05'0 0.0
2015-Jul-29 11:32N 49°30' W 000°04'0 0.0
2015-Jul-29 10:32N 49°30' W 000°04'0 0.0
2015-Jul-29 09:32N 49°30' W 000°04'0 0.0
2015-Jul-29 08:32N 49°30' W 000°04'3 3.1
2015-Jul-29 07:33N 49°30' W 000°09'1010.0
2015-Jul-29 06:33N 49°40' W 000°11'1110.6
2015-Jul-29 05:32N 49°51' W 000°11'39 9.7
2015-Jul-29 01:33N 50°28' E 000°04'1111.1
2015-Jul-29 00:33N 50°31' E 000°21'1111.2
2015-Jul-28 23:33N 50°36' E 000°37'1111.3
2015-Jul-28 22:33N 50°43' E 000°51'1111.4
2015-Jul-28 21:33N 50°50' E 001°06'1111.5
2015-Jul-28 20:33N 50°58' E 001°18'1111.2
2015-Jul-28 19:34N 51°05' E 001°32'1211.8
2015-Jul-28 18:34N 51°02' E 001°50'1212.1
2015-Jul-28 17:33N 51°03' E 002°10'2 2.1
2015-Jul-28 16:33N 51°01' E 002°11'0 0.0
2015-Jul-28 15:33N 51°01' E 002°11'0 0.0
2015-Jul-28 13:30N 51°01' E 002°11'0 0.0
2015-Jul-28 09:24N 51°01' E 002°11'0 0.0
2015-Jul-28 07:24N 51°01' E 002°11'0 0.0
2015-Jul-27 23:21N 51°01' E 002°11'0 0.0
2015-Jul-27 19:33N 51°01' E 002°11'0 0.0
2015-Jul-27 18:24N 51°01' E 002°11'0 0.0
2015-Jul-27 17:33N 51°01' E 002°11'0 0.0
2015-Jul-27 16:30N 51°01' E 002°11'0 0.0
2015-Jul-27 15:30N 51°01' E 002°11'0 0.0
2015-Jul-27 14:33N 51°01' E 002°11'0 0.0
2015-Jul-27 13:33N 51°01' E 002°11'0 0.0
2015-Jul-27 12:15N 51°01' E 002°11'0 0.0
2015-Jul-27 11:27N 51°01' E 002°11'0 0.0
2015-Jul-27 09:33N 51°01' E 002°11'0 0.0
2015-Jul-27 06:33N 51°01' E 002°11'0 0.0
2015-Jul-27 05:33N 51°01' E 002°11'0 0.0
2015-Jul-27 04:15N 51°01' E 002°11'0 0.0
2015-Jul-27 03:33N 51°01' E 002°11'0 0.0
2015-Jul-27 02:27N 51°01' E 002°11'0 0.0
2015-Jul-27 01:33N 51°01' E 002°11'0 0.0
2015-Jul-27 00:24N 51°01' E 002°11'0 0.0
2015-Jul-26 23:33N 51°01' E 002°11'0 0.0
2015-Jul-26 22:18N 51°01' E 002°11'0 0.0
2015-Jul-26 21:12N 51°01' E 002°11'0 0.0
2015-Jul-26 19:30N 51°01' E 002°11'1 1.6
2015-Jul-26 18:33N 51°02' E 002°10'1515.3
2015-Jul-26 17:33N 51°02' E 001°46'  
2015-Jul-23 12:28N 40°11' W 031°44'1819.3
2015-Jul-23 11:34N 40°01' W 032°02'  

Dump ship's entire track history